sensor_id;sensor_type;location;lat;lon;timestamp;pressure;altitude;pressure_sealevel;temperature;humidity
7200;BME280;3641;49.082;8.200;2022-12-29T00:00:01;99816.44;;;7.98;81.94
7200;BME280;3641;49.082;8.200;2022-12-29T00:02:28;99807.81;;;7.95;82.38
7200;BME280;3641;49.082;8.200;2022-12-29T00:04:54;99808.09;;;8.00;82.28
7200;BME280;3641;49.082;8.200;2022-12-29T00:07:20;99818.97;;;8.00;82.02
7200;BME280;3641;49.082;8.200;2022-12-29T00:09:48;99817.78;;;8.03;82.30
7200;BME280;3641;49.082;8.200;2022-12-29T00:12:15;99810.56;;;8.10;82.46
7200;BME280;3641;49.082;8.200;2022-12-29T00:14:41;99817.00;;;8.32;80.61
7200;BME280;3641;49.082;8.200;2022-12-29T00:17:25;99811.50;;;8.40;80.45
7200;BME280;3641;49.082;8.200;2022-12-29T00:19:52;99807.44;;;8.44;80.61
7200;BME280;3641;49.082;8.200;2022-12-29T00:22:36;99813.25;;;8.56;80.40
7200;BME280;3641;49.082;8.200;2022-12-29T00:25:21;99827.44;;;8.81;78.55
7200;BME280;3641;49.082;8.200;2022-12-29T00:28:07;99815.31;;;8.69;79.58
7200;BME280;3641;49.082;8.200;2022-12-29T00:30:51;99815.25;;;9.07;77.28
7200;BME280;3641;49.082;8.200;2022-12-29T00:33:44;99813.25;;;9.31;76.67
7200;BME280;3641;49.082;8.200;2022-12-29T00:36:31;99819.19;;;9.19;76.95
7200;BME280;3641;49.082;8.200;2022-12-29T00:39:02;99818.22;;;9.12;77.88
7200;BME280;3641;49.082;8.200;2022-12-29T00:41:48;99813.44;;;9.14;77.65
7200;BME280;3641;49.082;8.200;2022-12-29T00:44:32;99812.78;;;9.12;78.13
7200;BME280;3641;49.082;8.200;2022-12-29T00:46:59;99817.78;;;9.08;79.30
7200;BME280;3641;49.082;8.200;2022-12-29T00:49:28;99818.13;;;9.20;78.25
7200;BME280;3641;49.082;8.200;2022-12-29T00:52:00;99828.63;;;9.23;78.04
7200;BME280;3641;49.082;8.200;2022-12-29T00:54:28;99818.88;;;9.14;78.64
7200;BME280;3641;49.082;8.200;2022-12-29T00:56:56;99817.06;;;9.36;77.85
7200;BME280;3641;49.082;8.200;2022-12-29T00:59:23;99820.19;;;9.18;79.81
7200;BME280;3641;49.082;8.200;2022-12-29T01:01:50;99829.63;;;9.52;77.92
7200;BME280;3641;49.082;8.200;2022-12-29T01:04:18;99818.50;;;9.32;78.94
7200;BME280;3641;49.082;8.200;2022-12-29T01:06:45;99816.22;;;9.36;79.09
7200;BME280;3641;49.082;8.200;2022-12-29T01:09:12;99823.94;;;9.32;79.00
7200;BME280;3641;49.082;8.200;2022-12-29T01:11:57;99830.19;;;9.48;78.88
7200;BME280;3641;49.082;8.200;2022-12-29T01:14:24;99828.28;;;9.63;78.64
7200;BME280;3641;49.082;8.200;2022-12-29T01:16:51;99825.94;;;9.60;79.41
7200;BME280;3641;49.082;8.200;2022-12-29T01:19:19;99812.16;;;9.83;78.75
7200;BME280;3641;49.082;8.200;2022-12-29T01:21:45;99810.72;;;9.66;80.04
7200;BME280;3641;49.082;8.200;2022-12-29T01:24:12;99830.00;;;9.64;80.55
7200;BME280;3641;49.082;8.200;2022-12-29T01:26:39;99810.41;;;9.75;80.24
7200;BME280;3641;49.082;8.200;2022-12-29T01:29:07;99824.28;;;9.59;81.24
7200;BME280;3641;49.082;8.200;2022-12-29T01:31:33;99818.03;;;9.65;81.18
7200;BME280;3641;49.082;8.200;2022-12-29T01:34:00;99824.84;;;9.91;80.76
7200;BME280;3641;49.082;8.200;2022-12-29T01:36:26;99818.13;;;9.72;81.81
7200;BME280;3641;49.082;8.200;2022-12-29T01:38:53;99806.03;;;9.81;81.82
7200;BME280;3641;49.082;8.200;2022-12-29T01:41:20;99803.63;;;9.71;82.37
7200;BME280;3641;49.082;8.200;2022-12-29T01:43:48;99799.50;;;9.97;82.30
7200;BME280;3641;49.082;8.200;2022-12-29T01:46:20;99810.22;;;9.98;81.66
7200;BME280;3641;49.082;8.200;2022-12-29T01:48:51;99805.53;;;9.92;82.32
7200;BME280;3641;49.082;8.200;2022-12-29T01:51:21;99790.09;;;10.21;80.83
7200;BME280;3641;49.082;8.200;2022-12-29T01:53:48;99805.53;;;10.14;80.88
7200;BME280;3641;49.082;8.200;2022-12-29T01:56:17;99802.03;;;9.98;81.86
7200;BME280;3641;49.082;8.200;2022-12-29T01:58:49;99789.63;;;10.17;80.78
7200;BME280;3641;49.082;8.200;2022-12-29T02:01:19;99786.59;;;10.06;81.48
7200;BME280;3641;49.082;8.200;2022-12-29T02:03:48;99779.81;;;10.02;81.16
7200;BME280;3641;49.082;8.200;2022-12-29T02:06:18;99788.66;;;10.04;81.46
7200;BME280;3641;49.082;8.200;2022-12-29T02:08:49;99779.38;;;10.20;80.47
7200;BME280;3641;49.082;8.200;2022-12-29T02:11:17;99782.28;;;10.18;80.70
7200;BME280;3641;49.082;8.200;2022-12-29T02:13:43;99797.31;;;10.07;81.16
7200;BME280;3641;49.082;8.200;2022-12-29T02:16:21;99788.25;;;10.07;81.39
7200;BME280;3641;49.082;8.200;2022-12-29T02:19:02;99790.78;;;10.08;80.99
7200;BME280;3641;49.082;8.200;2022-12-29T02:21:45;99789.31;;;10.06;80.95
7200;BME280;3641;49.082;8.200;2022-12-29T02:24:49;99788.84;;;10.24;80.63
7200;BME280;3641;49.082;8.200;2022-12-29T02:27:44;99786.34;;;10.29;81.27
7200;BME280;3641;49.082;8.200;2022-12-29T02:30:38;99778.25;;;10.14;82.21
7200;BME280;3641;49.082;8.200;2022-12-29T02:35:57;99775.81;;;9.97;83.74
7200;BME280;3641;49.082;8.200;2022-12-29T02:38:34;99767.78;;;9.89;85.45
7200;BME280;3641;49.082;8.200;2022-12-29T02:41:13;99770.50;;;9.89;85.45
7200;BME280;3641;49.082;8.200;2022-12-29T02:43:47;99763.03;;;9.98;84.68
7200;BME280;3641;49.082;8.200;2022-12-29T02:46:20;99769.63;;;9.89;85.36
7200;BME280;3641;49.082;8.200;2022-12-29T02:48:57;99755.69;;;9.98;84.60
7200;BME280;3641;49.082;8.200;2022-12-29T02:51:30;99757.66;;;9.83;85.12
7200;BME280;3641;49.082;8.200;2022-12-29T02:53:59;99756.78;;;9.82;84.57
7200;BME280;3641;49.082;8.200;2022-12-29T02:56:43;99754.34;;;9.88;84.06
7200;BME280;3641;49.082;8.200;2022-12-29T02:59:10;99749.03;;;10.08;82.37
7200;BME280;3641;49.082;8.200;2022-12-29T03:01:51;99762.81;;;9.99;82.69
7200;BME280;3641;49.082;8.200;2022-12-29T03:04:39;99762.94;;;10.13;81.89
7200;BME280;3641;49.082;8.200;2022-12-29T03:07:16;99753.81;;;10.27;80.36
7200;BME280;3641;49.082;8.200;2022-12-29T03:09:52;99746.41;;;10.43;79.89
7200;BME280;3641;49.082;8.200;2022-12-29T03:12:26;99739.53;;;10.25;80.64
7200;BME280;3641;49.082;8.200;2022-12-29T03:15:18;99734.91;;;10.26;80.39
7200;BME280;3641;49.082;8.200;2022-12-29T03:18:10;99739.88;;;10.37;79.58
7200;BME280;3641;49.082;8.200;2022-12-29T03:20:44;99719.91;;;10.36;79.75
7200;BME280;3641;49.082;8.200;2022-12-29T03:23:14;99729.16;;;10.35;79.78
7200;BME280;3641;49.082;8.200;2022-12-29T03:25:44;99722.66;;;10.36;79.81
7200;BME280;3641;49.082;8.200;2022-12-29T03:28:16;99719.56;;;10.46;78.71
7200;BME280;3641;49.082;8.200;2022-12-29T03:30:45;99707.81;;;10.46;78.77
7200;BME280;3641;49.082;8.200;2022-12-29T03:33:16;99708.28;;;10.56;77.93
7200;BME280;3641;49.082;8.200;2022-12-29T03:35:44;99698.44;;;10.55;78.06
7200;BME280;3641;49.082;8.200;2022-12-29T03:38:16;99683.91;;;10.54;77.44
7200;BME280;3641;49.082;8.200;2022-12-29T03:40:45;99675.97;;;10.53;77.85
7200;BME280;3641;49.082;8.200;2022-12-29T03:43:13;99689.63;;;10.31;78.70
7200;BME280;3641;49.082;8.200;2022-12-29T03:45:40;99680.91;;;10.36;78.25
7200;BME280;3641;49.082;8.200;2022-12-29T03:48:07;99672.06;;;10.34;78.02
7200;BME280;3641;49.082;8.200;2022-12-29T03:50:35;99662.22;;;10.40;77.50
7200;BME280;3641;49.082;8.200;2022-12-29T03:53:01;99667.91;;;10.45;77.12
7200;BME280;3641;49.082;8.200;2022-12-29T03:55:28;99671.50;;;10.45;77.05
7200;BME280;3641;49.082;8.200;2022-12-29T03:57:54;99678.41;;;10.41;76.99
7200;BME280;3641;49.082;8.200;2022-12-29T04:00:20;99683.25;;;10.46;77.01
7200;BME280;3641;49.082;8.200;2022-12-29T04:02:47;99670.38;;;10.33;77.37
7200;BME280;3641;49.082;8.200;2022-12-29T04:05:14;99677.03;;;10.30;77.52
7200;BME280;3641;49.082;8.200;2022-12-29T04:07:41;99677.44;;;10.27;77.85
7200;BME280;3641;49.082;8.200;2022-12-29T04:10:08;99680.50;;;10.39;76.96
7200;BME280;3641;49.082;8.200;2022-12-29T04:12:35;99682.16;;;10.40;76.84
7200;BME280;3641;49.082;8.200;2022-12-29T04:15:01;99684.44;;;10.36;77.03
7200;BME280;3641;49.082;8.200;2022-12-29T04:17:28;99686.34;;;10.36;77.27
7200;BME280;3641;49.082;8.200;2022-12-29T04:19:54;99680.50;;;10.39;76.85
7200;BME280;3641;49.082;8.200;2022-12-29T04:22:43;99684.84;;;10.33;77.64
7200;BME280;3641;49.082;8.200;2022-12-29T04:25:09;99679.31;;;10.27;77.24
7200;BME280;3641;49.082;8.200;2022-12-29T04:27:36;99674.59;;;10.35;76.86
7200;BME280;3641;49.082;8.200;2022-12-29T04:30:03;99665.56;;;10.35;76.60
7200;BME280;3641;49.082;8.200;2022-12-29T04:32:29;99676.00;;;10.31;76.72
7200;BME280;3641;49.082;8.200;2022-12-29T04:34:56;99677.72;;;10.32;76.66
7200;BME280;3641;49.082;8.200;2022-12-29T04:37:22;99666.72;;;10.26;76.23
7200;BME280;3641;49.082;8.200;2022-12-29T04:39:50;99670.53;;;10.31;75.69
7200;BME280;3641;49.082;8.200;2022-12-29T04:42:17;99672.31;;;10.39;75.90
7200;BME280;3641;49.082;8.200;2022-12-29T04:44:43;99677.97;;;10.38;75.28
7200;BME280;3641;49.082;8.200;2022-12-29T04:47:09;99678.94;;;10.30;76.19
7200;BME280;3641;49.082;8.200;2022-12-29T04:49:36;99693.97;;;10.19;77.01
7200;BME280;3641;49.082;8.200;2022-12-29T04:52:03;99695.56;;;10.35;75.54
7200;BME280;3641;49.082;8.200;2022-12-29T04:54:29;99689.59;;;10.25;76.82
7200;BME280;3641;49.082;8.200;2022-12-29T04:56:57;99689.38;;;10.20;77.40
7200;BME280;3641;49.082;8.200;2022-12-29T04:59:23;99697.53;;;10.20;77.47
7200;BME280;3641;49.082;8.200;2022-12-29T05:01:50;99689.38;;;10.20;78.85
7200;BME280;3641;49.082;8.200;2022-12-29T05:04:16;99678.03;;;10.23;77.31
7200;BME280;3641;49.082;8.200;2022-12-29T05:06:43;99685.63;;;10.27;77.25
7200;BME280;3641;49.082;8.200;2022-12-29T05:09:09;99676.38;;;10.22;77.69
7200;BME280;3641;49.082;8.200;2022-12-29T05:11:36;99675.97;;;10.25;77.37
7200;BME280;3641;49.082;8.200;2022-12-29T05:14:03;99667.94;;;10.16;77.29
7200;BME280;3641;49.082;8.200;2022-12-29T05:16:30;99675.88;;;10.40;76.05
7200;BME280;3641;49.082;8.200;2022-12-29T05:18:56;99669.72;;;10.31;76.70
7200;BME280;3641;49.082;8.200;2022-12-29T05:21:23;99664.53;;;10.36;76.05
7200;BME280;3641;49.082;8.200;2022-12-29T05:23:50;99672.31;;;10.39;76.46
7200;BME280;3641;49.082;8.200;2022-12-29T05:26:17;99657.25;;;10.50;75.52
7200;BME280;3641;49.082;8.200;2022-12-29T05:28:43;99654.88;;;10.40;76.42
7200;BME280;3641;49.082;8.200;2022-12-29T05:31:11;99647.16;;;10.44;75.44
7200;BME280;3641;49.082;8.200;2022-12-29T05:33:37;99661.03;;;10.49;75.14
7200;BME280;3641;49.082;8.200;2022-12-29T05:36:04;99656.38;;;10.43;75.76
7200;BME280;3641;49.082;8.200;2022-12-29T05:38:31;99659.34;;;10.54;74.97
7200;BME280;3641;49.082;8.200;2022-12-29T05:40:58;99664.19;;;10.52;74.67
7200;BME280;3641;49.082;8.200;2022-12-29T05:43:24;99650.78;;;10.58;74.66
7200;BME280;3641;49.082;8.200;2022-12-29T05:45:51;99667.31;;;10.49;74.45
7200;BME280;3641;49.082;8.200;2022-12-29T05:48:19;99663.38;;;10.59;74.37
7200;BME280;3641;49.082;8.200;2022-12-29T05:50:47;99650.13;;;10.56;74.50
7200;BME280;3641;49.082;8.200;2022-12-29T05:53:14;99640.72;;;10.58;74.36
7200;BME280;3641;49.082;8.200;2022-12-29T05:55:40;99650.66;;;10.72;73.52
7200;BME280;3641;49.082;8.200;2022-12-29T05:58:07;99653.69;;;10.56;74.77
7200;BME280;3641;49.082;8.200;2022-12-29T06:00:33;99654.94;;;10.47;75.34
7200;BME280;3641;49.082;8.200;2022-12-29T06:03:00;99655.31;;;10.37;75.66
7200;BME280;3641;49.082;8.200;2022-12-29T06:05:28;99656.06;;;10.31;76.63
7200;BME280;3641;49.082;8.200;2022-12-29T06:07:54;99657.75;;;10.32;75.68
7200;BME280;3641;49.082;8.200;2022-12-29T06:10:20;99655.13;;;10.45;74.70
7200;BME280;3641;49.082;8.200;2022-12-29T06:12:47;99667.31;;;10.49;74.30
7200;BME280;3641;49.082;8.200;2022-12-29T06:15:14;99655.78;;;10.47;74.75
7200;BME280;3641;49.082;8.200;2022-12-29T06:17:40;99658.28;;;10.49;75.79
7200;BME280;3641;49.082;8.200;2022-12-29T06:20:08;99644.84;;;10.47;74.13
7200;BME280;3641;49.082;8.200;2022-12-29T06:22:37;99657.69;;;10.53;74.35
7200;BME280;3641;49.082;8.200;2022-12-29T06:25:04;99651.59;;;10.51;74.15
7200;BME280;3641;49.082;8.200;2022-12-29T06:27:31;99651.81;;;10.50;74.32
7200;BME280;3641;49.082;8.200;2022-12-29T06:29:58;99648.69;;;10.53;73.79
7200;BME280;3641;49.082;8.200;2022-12-29T06:32:24;99645.47;;;10.43;74.68
7200;BME280;3641;49.082;8.200;2022-12-29T06:34:51;99642.09;;;10.41;74.60
7200;BME280;3641;49.082;8.200;2022-12-29T06:39:54;99632.94;;;10.55;73.91
7200;BME280;3641;49.082;8.200;2022-12-29T06:42:20;99636.72;;;10.61;73.54
7200;BME280;3641;49.082;8.200;2022-12-29T06:44:46;99641.56;;;10.65;72.99
7200;BME280;3641;49.082;8.200;2022-12-29T06:47:13;99642.19;;;10.61;72.80
7200;BME280;3641;49.082;8.200;2022-12-29T06:49:39;99633.75;;;10.56;73.75
7200;BME280;3641;49.082;8.200;2022-12-29T06:52:06;99639.84;;;10.58;73.18
7200;BME280;3641;49.082;8.200;2022-12-29T06:54:33;99651.22;;;10.61;72.78
7200;BME280;3641;49.082;8.200;2022-12-29T06:57:01;99640.72;;;10.58;72.99
7200;BME280;3641;49.082;8.200;2022-12-29T06:59:27;99655.66;;;10.69;72.40
7200;BME280;3641;49.082;8.200;2022-12-29T07:01:53;99651.88;;;10.70;72.16
7200;BME280;3641;49.082;8.200;2022-12-29T07:04:20;99658.38;;;10.69;72.86
7200;BME280;3641;49.082;8.200;2022-12-29T07:06:47;99646.19;;;10.65;72.65
7200;BME280;3641;49.082;8.200;2022-12-29T07:09:13;99641.78;;;10.70;72.28
7200;BME280;3641;49.082;8.200;2022-12-29T07:11:40;99650.63;;;10.66;72.29
7200;BME280;3641;49.082;8.200;2022-12-29T07:14:07;99643.66;;;10.63;72.22
7200;BME280;3641;49.082;8.200;2022-12-29T07:16:34;99641.53;;;10.59;72.87
7200;BME280;3641;49.082;8.200;2022-12-29T07:19:00;99648.03;;;10.58;72.87
7200;BME280;3641;49.082;8.200;2022-12-29T07:21:27;99642.78;;;10.56;73.07
7200;BME280;3641;49.082;8.200;2022-12-29T07:23:53;99639.84;;;10.58;72.88
7200;BME280;3641;49.082;8.200;2022-12-29T07:26:20;99647.59;;;10.54;73.12
7200;BME280;3641;49.082;8.200;2022-12-29T07:28:46;99647.97;;;10.44;73.49
7200;BME280;3641;49.082;8.200;2022-12-29T07:31:16;99650.13;;;10.56;72.75
7200;BME280;3641;49.082;8.200;2022-12-29T07:33:43;99651.16;;;10.48;72.73
7200;BME280;3641;49.082;8.200;2022-12-29T07:36:10;99654.94;;;10.47;73.77
7200;BME280;3641;49.082;8.200;2022-12-29T07:38:39;99655.97;;;10.46;72.91
7200;BME280;3641;49.082;8.200;2022-12-29T07:41:06;99661.25;;;10.54;72.37
7200;BME280;3641;49.082;8.200;2022-12-29T07:43:33;99665.44;;;10.50;72.11
7200;BME280;3641;49.082;8.200;2022-12-29T07:46:00;99658.09;;;10.50;72.82
7200;BME280;3641;49.082;8.200;2022-12-29T07:48:27;99664.59;;;10.49;72.54
7200;BME280;3641;49.082;8.200;2022-12-29T07:50:54;99663.97;;;10.54;73.23
7200;BME280;3641;49.082;8.200;2022-12-29T07:53:21;99675.53;;;10.56;71.86
7200;BME280;3641;49.082;8.200;2022-12-29T07:55:48;99680.38;;;10.61;71.52
7200;BME280;3641;49.082;8.200;2022-12-29T07:58:14;99675.78;;;10.61;72.09
7200;BME280;3641;49.082;8.200;2022-12-29T08:00:41;99680.84;;;10.64;71.06
7200;BME280;3641;49.082;8.200;2022-12-29T08:03:07;99679.16;;;10.63;71.61
7200;BME280;3641;49.082;8.200;2022-12-29T08:05:35;99686.03;;;10.59;71.88
7200;BME280;3641;49.082;8.200;2022-12-29T08:08:02;99695.56;;;10.70;71.57
7200;BME280;3641;49.082;8.200;2022-12-29T08:10:29;99695.53;;;10.63;71.19
7200;BME280;3641;49.082;8.200;2022-12-29T08:12:55;99700.28;;;10.54;72.21
7200;BME280;3641;49.082;8.200;2022-12-29T08:15:22;99694.84;;;10.54;72.26
7200;BME280;3641;49.082;8.200;2022-12-29T08:17:48;99705.63;;;10.63;71.75
7200;BME280;3641;49.082;8.200;2022-12-29T08:20:15;99710.09;;;10.77;70.48
7200;BME280;3641;49.082;8.200;2022-12-29T08:22:43;99705.03;;;10.74;71.23
7200;BME280;3641;49.082;8.200;2022-12-29T08:25:09;99704.78;;;10.69;72.04
7200;BME280;3641;49.082;8.200;2022-12-29T08:27:36;99693.66;;;10.70;71.75
7200;BME280;3641;49.082;8.200;2022-12-29T08:30:03;99703.47;;;11.00;69.77
7200;BME280;3641;49.082;8.200;2022-12-29T08:32:29;99709.53;;;10.95;70.79
7200;BME280;3641;49.082;8.200;2022-12-29T08:34:56;99703.66;;;10.98;70.48
7200;BME280;3641;49.082;8.200;2022-12-29T08:37:22;99711.25;;;11.03;70.02
7200;BME280;3641;49.082;8.200;2022-12-29T08:39:50;99723.94;;;11.31;68.99
7200;BME280;3641;49.082;8.200;2022-12-29T08:42:17;99726.66;;;11.17;70.08
7200;BME280;3641;49.082;8.200;2022-12-29T08:44:43;99727.97;;;11.35;69.25
7200;BME280;3641;49.082;8.200;2022-12-29T08:47:10;99708.88;;;11.55;68.18
7200;BME280;3641;49.082;8.200;2022-12-29T08:49:37;99710.28;;;11.37;69.60
7200;BME280;3641;49.082;8.200;2022-12-29T08:52:04;99714.03;;;11.23;69.62
7200;BME280;3641;49.082;8.200;2022-12-29T08:54:30;99704.19;;;11.29;69.03
7200;BME280;3641;49.082;8.200;2022-12-29T08:56:58;99713.00;;;11.31;69.37
7200;BME280;3641;49.082;8.200;2022-12-29T08:59:24;99715.34;;;11.40;69.18
7200;BME280;3641;49.082;8.200;2022-12-29T09:01:51;99722.50;;;11.35;69.31
7200;BME280;3641;49.082;8.200;2022-12-29T09:04:17;99728.41;;;11.52;68.96
7200;BME280;3641;49.082;8.200;2022-12-29T09:06:44;99735.56;;;11.53;70.71
7200;BME280;3641;49.082;8.200;2022-12-29T09:09:11;99731.72;;;11.34;72.64
7200;BME280;3641;49.082;8.200;2022-12-29T09:11:38;99731.72;;;11.27;73.06
7200;BME280;3641;49.082;8.200;2022-12-29T09:14:05;99743.25;;;11.16;75.24
7200;BME280;3641;49.082;8.200;2022-12-29T09:16:32;99762.13;;;11.11;75.64
7200;BME280;3641;49.082;8.200;2022-12-29T09:18:59;99747.59;;;11.03;76.75
7200;BME280;3641;49.082;8.200;2022-12-29T09:21:26;99742.94;;;10.97;77.71
7200;BME280;3641;49.082;8.200;2022-12-29T09:23:52;99765.34;;;10.86;78.85
7200;BME280;3641;49.082;8.200;2022-12-29T09:26:18;99754.47;;;10.93;77.25
7200;BME280;3641;49.082;8.200;2022-12-29T09:28:45;99759.50;;;10.89;78.78
7200;BME280;3641;49.082;8.200;2022-12-29T09:31:13;99775.84;;;10.82;80.02
7200;BME280;3641;49.082;8.200;2022-12-29T09:33:40;99763.44;;;10.80;80.44
7200;BME280;3641;49.082;8.200;2022-12-29T09:36:08;99767.25;;;10.85;79.33
7200;BME280;3641;49.082;8.200;2022-12-29T09:38:34;99752.50;;;10.80;80.25
7200;BME280;3641;49.082;8.200;2022-12-29T09:41:06;99763.03;;;10.83;79.92
7200;BME280;3641;49.082;8.200;2022-12-29T09:43:46;99780.00;;;10.78;80.01
7200;BME280;3641;49.082;8.200;2022-12-29T09:46:24;99772.03;;;10.77;80.14
7200;BME280;3641;49.082;8.200;2022-12-29T09:48:55;99771.03;;;10.84;79.46
7200;BME280;3641;49.082;8.200;2022-12-29T09:51:25;99771.81;;;10.78;79.77
7200;BME280;3641;49.082;8.200;2022-12-29T09:53:55;99783.22;;;10.82;79.16
7200;BME280;3641;49.082;8.200;2022-12-29T09:56:25;99782.53;;;10.80;79.31
7200;BME280;3641;49.082;8.200;2022-12-29T09:58:55;99782.38;;;10.88;78.95
7200;BME280;3641;49.082;8.200;2022-12-29T10:01:30;99790.97;;;10.85;79.21
7200;BME280;3641;49.082;8.200;2022-12-29T10:03:59;99788.13;;;11.00;78.20
7200;BME280;3641;49.082;8.200;2022-12-29T10:06:33;99792.53;;;11.01;77.91
7200;BME280;3641;49.082;8.200;2022-12-29T10:09:11;99792.63;;;11.14;76.85
7200;BME280;3641;49.082;8.200;2022-12-29T10:11:55;99790.31;;;11.18;76.80
7200;BME280;3641;49.082;8.200;2022-12-29T10:14:39;99792.41;;;11.16;75.16
7200;BME280;3641;49.082;8.200;2022-12-29T10:17:22;99790.69;;;11.08;76.37
7200;BME280;3641;49.082;8.200;2022-12-29T10:20:02;99782.03;;;10.98;76.63
7200;BME280;3641;49.082;8.200;2022-12-29T10:22:42;99823.41;;;10.95;77.09
7200;BME280;3641;49.082;8.200;2022-12-29T10:25:15;99796.72;;;10.97;77.49
7200;BME280;3641;49.082;8.200;2022-12-29T10:27:43;99797.09;;;10.87;77.68
7200;BME280;3641;49.082;8.200;2022-12-29T10:30:13;99790.38;;;10.89;77.57
7200;BME280;3641;49.082;8.200;2022-12-29T10:32:45;99814.50;;;10.86;76.91
7200;BME280;3641;49.082;8.200;2022-12-29T10:35:16;99809.59;;;10.75;78.92
7200;BME280;3641;49.082;8.200;2022-12-29T10:37:49;99795.50;;;10.64;80.42
7200;BME280;3641;49.082;8.200;2022-12-29T10:40:22;99797.16;;;10.65;81.05
7200;BME280;3641;49.082;8.200;2022-12-29T10:42:53;99791.94;;;10.70;80.97
7200;BME280;3641;49.082;8.200;2022-12-29T10:45:21;99786.53;;;10.77;79.93
7200;BME280;3641;49.082;8.200;2022-12-29T10:47:55;99791.59;;;10.80;80.09
7200;BME280;3641;49.082;8.200;2022-12-29T10:50:23;99781.94;;;10.84;80.06
7200;BME280;3641;49.082;8.200;2022-12-29T10:52:51;99795.19;;;10.87;79.82
7200;BME280;3641;49.082;8.200;2022-12-29T10:55:21;99786.00;;;10.95;79.54
7200;BME280;3641;49.082;8.200;2022-12-29T10:57:49;99790.88;;;11.06;78.82
7200;BME280;3641;49.082;8.200;2022-12-29T11:00:17;99797.19;;;11.07;79.20
7200;BME280;3641;49.082;8.200;2022-12-29T11:03:04;99787.16;;;11.14;78.75
7200;BME280;3641;49.082;8.200;2022-12-29T11:05:36;99794.50;;;11.14;78.23
7200;BME280;3641;49.082;8.200;2022-12-29T11:08:10;99796.69;;;11.32;77.24
7200;BME280;3641;49.082;8.200;2022-12-29T11:10:38;99790.84;;;11.41;77.18
7200;BME280;3641;49.082;8.200;2022-12-29T11:13:12;99804.06;;;11.38;76.63
7200;BME280;3641;49.082;8.200;2022-12-29T11:15:40;99799.25;;;11.47;76.76
7200;BME280;3641;49.082;8.200;2022-12-29T11:18:20;99807.94;;;11.57;75.85
7200;BME280;3641;49.082;8.200;2022-12-29T11:20:48;99806.84;;;11.51;75.55
7200;BME280;3641;49.082;8.200;2022-12-29T11:23:29;99799.94;;;11.62;75.56
7200;BME280;3641;49.082;8.200;2022-12-29T11:26:13;99780.59;;;11.57;76.26
7200;BME280;3641;49.082;8.200;2022-12-29T11:28:42;99792.56;;;11.56;75.97
7200;BME280;3641;49.082;8.200;2022-12-29T11:31:09;99793.44;;;11.70;74.53
7200;BME280;3641;49.082;8.200;2022-12-29T11:33:38;99781.91;;;11.81;74.09
7200;BME280;3641;49.082;8.200;2022-12-29T11:36:07;99790.13;;;11.88;72.92
7200;BME280;3641;49.082;8.200;2022-12-29T11:38:36;99780.69;;;11.97;72.11
7200;BME280;3641;49.082;8.200;2022-12-29T11:41:04;99778.59;;;12.12;69.41
7200;BME280;3641;49.082;8.200;2022-12-29T11:43:33;99780.69;;;12.04;70.47
7200;BME280;3641;49.082;8.200;2022-12-29T11:46:01;99781.75;;;12.03;70.17
7200;BME280;3641;49.082;8.200;2022-12-29T11:48:31;99779.63;;;11.98;71.15
7200;BME280;3641;49.082;8.200;2022-12-29T11:51:00;99789.94;;;11.96;71.47
7200;BME280;3641;49.082;8.200;2022-12-29T11:53:36;99796.63;;;11.87;72.86
7200;BME280;3641;49.082;8.200;2022-12-29T11:56:07;99787.59;;;11.79;73.67
7200;BME280;3641;49.082;8.200;2022-12-29T11:58:36;99785.03;;;11.71;74.71
7200;BME280;3641;49.082;8.200;2022-12-29T12:01:05;99781.44;;;11.64;75.96
7200;BME280;3641;49.082;8.200;2022-12-29T12:03:36;99779.31;;;11.59;75.73
7200;BME280;3641;49.082;8.200;2022-12-29T12:06:07;99770.91;;;11.61;75.34
7200;BME280;3641;49.082;8.200;2022-12-29T12:08:41;99767.34;;;11.67;76.15
7200;BME280;3641;49.082;8.200;2022-12-29T12:11:14;99776.63;;;11.73;76.11
7200;BME280;3641;49.082;8.200;2022-12-29T12:13:49;99763.78;;;11.67;76.19
7200;BME280;3641;49.082;8.200;2022-12-29T12:16:25;99755.59;;;11.73;73.87
7200;BME280;3641;49.082;8.200;2022-12-29T12:18:57;99736.66;;;11.78;71.82
7200;BME280;3641;49.082;8.200;2022-12-29T12:21:32;99752.03;;;11.79;71.82
7200;BME280;3641;49.082;8.200;2022-12-29T12:24:26;99745.69;;;11.72;72.92
7200;BME280;3641;49.082;8.200;2022-12-29T12:27:01;99751.81;;;11.74;72.43
7200;BME280;3641;49.082;8.200;2022-12-29T12:29:42;99760.25;;;11.79;72.59
7200;BME280;3641;49.082;8.200;2022-12-29T12:32:15;99764.72;;;11.94;71.44
7200;BME280;3641;49.082;8.200;2022-12-29T12:34:45;99757.13;;;12.03;69.73
7200;BME280;3641;49.082;8.200;2022-12-29T12:37:35;99759.63;;;11.91;71.22
7200;BME280;3641;49.082;8.200;2022-12-29T12:40:25;99772.28;;;11.92;70.80
7200;BME280;3641;49.082;8.200;2022-12-29T12:43:06;99765.75;;;11.93;70.48
7200;BME280;3641;49.082;8.200;2022-12-29T12:45:45;99768.03;;;11.89;71.47
7200;BME280;3641;49.082;8.200;2022-12-29T12:48:28;99766.53;;;11.80;72.02
7200;BME280;3641;49.082;8.200;2022-12-29T12:51:08;99763.16;;;11.71;73.06
7200;BME280;3641;49.082;8.200;2022-12-29T12:53:48;99767.34;;;11.67;73.15
7200;BME280;3641;49.082;8.200;2022-12-29T12:56:47;99754.31;;;11.62;73.53
7200;BME280;3641;49.082;8.200;2022-12-29T12:59:26;99746.31;;;11.54;74.49
7200;BME280;3641;49.082;8.200;2022-12-29T13:02:01;99737.25;;;11.54;75.28
7200;BME280;3641;49.082;8.200;2022-12-29T13:04:48;99745.25;;;11.55;75.86
7200;BME280;3641;49.082;8.200;2022-12-29T13:07:27;99743.56;;;11.54;75.79
7200;BME280;3641;49.082;8.200;2022-12-29T13:10:12;99738.09;;;11.61;76.00
7200;BME280;3641;49.082;8.200;2022-12-29T13:12:47;99733.47;;;11.61;75.42
7200;BME280;3641;49.082;8.200;2022-12-29T13:15:26;99745.69;;;11.66;75.21
7200;BME280;3641;49.082;8.200;2022-12-29T13:18:03;99742.13;;;11.65;75.20
7200;BME280;3641;49.082;8.200;2022-12-29T13:20:37;99744.19;;;11.63;74.57
7200;BME280;3641;49.082;8.200;2022-12-29T13:23:11;99749.03;;;11.61;75.27
7200;BME280;3641;49.082;8.200;2022-12-29T13:25:47;99748.00;;;11.55;75.27
7200;BME280;3641;49.082;8.200;2022-12-29T13:28:22;99752.19;;;11.51;74.88
7200;BME280;3641;49.082;8.200;2022-12-29T13:30:57;99742.28;;;11.50;75.16
7200;BME280;3641;49.082;8.200;2022-12-29T13:33:34;99761.81;;;11.47;75.02
7200;BME280;3641;49.082;8.200;2022-12-29T13:36:07;99760.78;;;11.48;75.32
7200;BME280;3641;49.082;8.200;2022-12-29T13:38:39;99753.81;;;11.39;75.65
7200;BME280;3641;49.082;8.200;2022-12-29T13:41:10;99740.34;;;11.37;75.87
7200;BME280;3641;49.082;8.200;2022-12-29T13:43:40;99748.97;;;11.34;75.80
7200;BME280;3641;49.082;8.200;2022-12-29T13:46:12;99737.19;;;11.27;75.79
7200;BME280;3641;49.082;8.200;2022-12-29T13:48:43;99753.56;;;11.27;75.89